createdAt,value
2023-05-01T00:05:02.995Z,54.48
2023-05-01T00:10:05.286Z,54.31
2023-05-01T00:15:07.816Z,54.56
2023-05-01T00:20:10.164Z,55.04
2023-05-01T00:25:12.105Z,55.57
2023-05-01T00:30:13.983Z,56.02
2023-05-01T00:35:16.680Z,56.39
2023-05-01T00:40:18.622Z,56.30
2023-05-01T00:45:20.690Z,56.09
2023-05-01T00:50:22.806Z,56.38
2023-05-01T00:55:26.083Z,56.29
2023-05-01T01:00:29.544Z,56.29
2023-05-01T01:05:35.766Z,56.12
2023-05-01T01:10:51.176Z,56.33
2023-05-01T01:16:13.996Z,56.19
2023-05-01T01:21:23.658Z,56.29
2023-05-01T01:26:59.374Z,57.17
2023-05-01T01:32:23.314Z,57.17
2023-05-01T01:38:03.775Z,57.27
2023-05-01T01:43:13.625Z,57.06
2023-05-01T01:48:24.481Z,57.31
2023-05-01T01:53:28.509Z,57.07
2023-05-01T01:58:32.171Z,57.23
2023-05-01T02:03:36.161Z,57.50
2023-05-01T02:08:38.513Z,57.47
2023-05-01T02:13:42.277Z,57.75
2023-05-01T02:18:46.705Z,57.92
2023-05-01T02:23:48.940Z,58.06
2023-05-01T02:28:50.809Z,58.48
2023-05-01T02:33:52.542Z,58.30
2023-05-01T02:38:55.096Z,58.50
2023-05-01T02:44:02.048Z,58.47
2023-05-01T02:49:06.047Z,58.04
2023-05-01T02:54:09.145Z,57.87
2023-05-01T02:59:10.991Z,58.02
2023-05-01T03:04:12.783Z,58.25
2023-05-01T03:09:14.796Z,58.19
2023-05-01T03:14:16.577Z,58.06
2023-05-01T03:19:18.333Z,58.31
2023-05-01T03:24:20.092Z,57.96
2023-05-01T03:29:22.018Z,58.14
2023-05-01T03:34:24.118Z,58.38
2023-05-01T03:39:26.028Z,58.17
2023-05-01T03:44:46.566Z,57.93
2023-05-01T03:49:49.222Z,57.96
2023-05-01T03:54:51.075Z,58.25
2023-05-01T04:00:00.307Z,58.29
2023-05-01T04:05:02.904Z,58.05
2023-05-01T04:10:07.240Z,57.54
2023-05-01T04:15:09.985Z,57.85
2023-05-01T04:20:12.532Z,57.27
2023-05-01T04:25:15.220Z,57.29
2023-05-01T04:30:18.276Z,56.83
2023-05-01T04:35:20.156Z,56.56
2023-05-01T04:40:22.171Z,56.83
2023-05-01T04:45:24.785Z,57.03
2023-05-01T04:50:26.916Z,56.37
2023-05-01T04:55:30.875Z,56.22
2023-05-01T05:00:52.559Z,56.06
2023-05-01T05:05:56.983Z,55.78
2023-05-01T05:11:00.359Z,55.33
2023-05-01T05:16:06.753Z,55.39
2023-05-01T05:21:09.162Z,55.18
2023-05-01T05:26:11.082Z,55.20
2023-05-01T05:31:12.853Z,55.12
2023-05-01T05:36:14.678Z,53.90
2023-05-01T05:41:21.713Z,52.91
2023-05-01T05:46:26.102Z,53.49
2023-05-01T05:51:31.060Z,52.72
2023-05-01T05:56:33.042Z,52.25
2023-05-01T06:01:37.376Z,51.02
2023-05-01T06:06:39.263Z,50.49
2023-05-01T06:11:41.612Z,49.93
2023-05-01T06:16:43.544Z,49.51
2023-05-01T06:21:45.479Z,49.20
2023-05-01T06:26:47.310Z,49.90
2023-05-01T06:31:49.117Z,49.19
2023-05-01T06:36:51.298Z,48.12
2023-05-01T06:41:53.077Z,47.24
2023-05-01T06:47:05.449Z,47.34
2023-05-01T06:52:08.002Z,46.15
2023-05-01T06:57:09.767Z,45.71
2023-05-01T07:02:11.625Z,45.28
2023-05-01T07:07:13.530Z,44.11
2023-05-01T07:12:15.457Z,43.10
2023-05-01T07:17:17.319Z,42.61
2023-05-01T07:22:19.557Z,42.33
2023-05-01T07:27:21.473Z,41.54
2023-05-01T07:32:23.351Z,41.50
2023-05-01T07:37:27.018Z,40.62
2023-05-01T07:42:28.891Z,39.22
2023-05-01T07:47:30.816Z,38.92
2023-05-01T07:52:33.048Z,38.57
2023-05-01T07:57:35.995Z,38.50
2023-05-01T08:02:37.902Z,38.02
2023-05-01T08:07:39.750Z,38.04
2023-05-01T08:12:41.631Z,36.60
2023-05-01T08:17:43.438Z,36.34
2023-05-01T08:22:45.233Z,36.27
2023-05-01T08:27:47.790Z,36.37
2023-05-01T08:32:49.974Z,35.37
2023-05-01T08:37:51.708Z,35.02
2023-05-01T08:42:55.712Z,34.61
2023-05-01T08:47:58.921Z,34.66
2023-05-01T08:53:02.253Z,34.51
2023-05-01T08:58:06.234Z,34.68
2023-05-01T09:03:11.536Z,35.02
2023-05-01T09:08:13.385Z,33.62
2023-05-01T09:13:15.292Z,34.01
2023-05-01T09:18:17.078Z,34.57
2023-05-01T09:23:20.301Z,34.76
2023-05-01T09:28:46.923Z,33.45
2023-05-01T09:34:02.196Z,33.02
2023-05-01T09:39:04.274Z,32.51
2023-05-01T09:44:17.271Z,33.32
2023-05-01T09:49:19.105Z,32.60
2023-05-01T09:54:20.965Z,32.58
2023-05-01T09:59:22.781Z,33.01
2023-05-01T10:04:33.950Z,32.82
2023-05-01T10:09:35.693Z,31.27
2023-05-01T10:15:07.862Z,31.23
2023-05-01T10:20:15.714Z,31.10
2023-05-01T10:25:18.242Z,31.75
2023-05-01T10:30:20.411Z,31.80
2023-05-01T10:35:28.025Z,32.37
2023-05-01T10:40:49.343Z,32.04
2023-05-01T10:45:52.013Z,33.24
2023-05-01T10:51:12.499Z,33.37
2023-05-01T10:56:27.088Z,32.12
2023-05-01T11:01:32.899Z,32.71
2023-05-01T11:06:36.125Z,31.20
2023-05-01T11:11:37.888Z,31.93
2023-05-01T11:16:39.850Z,30.55
2023-05-01T11:21:42.185Z,30.74
2023-05-01T11:26:44.645Z,30.88
2023-05-01T11:31:48.715Z,30.07
2023-05-01T11:36:51.940Z,29.56
2023-05-01T11:42:09.577Z,29.41
2023-05-01T11:47:11.476Z,28.45
2023-05-01T11:52:13.283Z,28.58
2023-05-01T11:57:15.048Z,29.05
2023-05-01T12:02:20.585Z,30.27
2023-05-01T12:07:23.411Z,30.59
2023-05-01T12:12:25.348Z,29.73
2023-05-01T12:17:28.481Z,30.20
2023-05-01T12:22:30.421Z,30.36
2023-05-01T12:27:33.034Z,32.08
2023-05-01T12:32:35.184Z,34.17
2023-05-01T12:37:37.062Z,33.11
2023-05-01T12:42:39.000Z,33.28
2023-05-01T12:47:40.955Z,33.23
2023-05-01T12:52:43.090Z,33.98
2023-05-01T12:57:54.992Z,34.78
2023-05-01T13:03:03.629Z,35.02
2023-05-01T13:08:06.272Z,36.01
2023-05-01T13:13:08.110Z,36.96
2023-05-01T13:18:10.094Z,36.86
2023-05-01T13:23:15.696Z,35.61
2023-05-01T13:28:21.004Z,36.10
2023-05-01T13:33:22.797Z,36.71
2023-05-01T13:38:25.137Z,37.24
2023-05-01T13:43:27.152Z,38.03
2023-05-01T13:48:30.788Z,36.27
2023-05-01T13:53:32.984Z,35.55
2023-05-01T13:58:34.863Z,35.26
2023-05-01T14:03:41.105Z,34.14
2023-05-01T14:08:44.568Z,34.26
2023-05-01T14:13:48.529Z,33.83
2023-05-01T14:18:54.649Z,33.52
2023-05-01T14:24:00.401Z,33.11
2023-05-01T14:29:02.161Z,33.60
2023-05-01T14:34:06.757Z,33.77
2023-05-01T14:39:08.634Z,34.52
2023-05-01T14:44:15.949Z,34.47
2023-05-01T14:49:22.552Z,34.58
2023-05-01T14:54:24.379Z,35.19
2023-05-01T14:59:26.720Z,35.98
2023-05-01T15:04:28.743Z,36.38
2023-05-01T15:09:31.054Z,36.74
2023-05-01T15:14:32.777Z,36.94
2023-05-01T15:19:34.552Z,36.92
2023-05-01T15:24:36.459Z,37.19
2023-05-01T15:29:38.548Z,37.04
2023-05-01T15:34:41.476Z,37.26
2023-05-01T15:39:43.314Z,37.14
2023-05-01T15:44:45.131Z,37.30
2023-05-01T15:49:46.912Z,36.94
2023-05-01T15:54:48.807Z,37.39
2023-05-01T15:59:53.947Z,37.25
2023-05-01T16:04:55.872Z,38.15
2023-05-01T16:09:58.351Z,38.49
2023-05-01T16:15:05.401Z,38.10
2023-05-01T16:20:11.390Z,38.35
2023-05-01T16:25:16.695Z,38.93
2023-05-01T16:30:18.675Z,39.15
2023-05-01T16:35:26.319Z,39.59
2023-05-01T16:40:28.092Z,39.26
2023-05-01T16:45:31.401Z,37.82
2023-05-01T16:50:34.062Z,38.07
2023-05-01T16:55:35.779Z,37.36
2023-05-01T17:00:37.860Z,37.49
2023-05-01T17:05:39.652Z,38.00
2023-05-01T17:10:41.598Z,38.75
2023-05-01T17:15:43.438Z,39.97
2023-05-01T17:20:45.215Z,41.19
2023-05-01T17:25:46.961Z,41.66
2023-05-01T17:30:48.699Z,41.81
2023-05-01T17:35:51.857Z,42.26
2023-05-01T17:40:53.587Z,44.28
2023-05-01T17:45:55.381Z,45.30
2023-05-01T17:50:58.474Z,46.70
2023-05-01T17:56:00.233Z,45.47
2023-05-01T18:01:03.644Z,44.87
2023-05-01T18:06:05.579Z,44.54
2023-05-01T18:11:07.481Z,44.76
2023-05-01T18:16:11.151Z,44.81
2023-05-01T18:21:12.993Z,45.30
2023-05-01T18:26:14.791Z,46.28
2023-05-01T18:31:16.674Z,45.84
2023-05-01T18:36:18.437Z,46.54
2023-05-01T18:41:20.165Z,47.09
2023-05-01T18:46:22.098Z,45.89
2023-05-01T18:51:24.210Z,45.90
2023-05-01T18:56:27.620Z,45.92
2023-05-01T19:01:29.586Z,45.66
2023-05-01T19:06:31.642Z,46.21
2023-05-01T19:11:33.382Z,46.21
2023-05-01T19:16:35.173Z,46.55
2023-05-01T19:21:36.988Z,46.81
2023-05-01T19:26:38.754Z,47.26
2023-05-01T19:31:40.640Z,47.52
2023-05-01T19:36:42.388Z,47.86
2023-05-01T19:41:44.821Z,48.00
2023-05-01T19:46:46.584Z,48.39
2023-05-01T19:51:48.379Z,48.69
2023-05-01T19:56:51.825Z,48.84
2023-05-01T20:01:53.814Z,49.06
2023-05-01T20:06:55.893Z,49.29
2023-05-01T20:11:57.786Z,49.35
2023-05-01T20:16:59.645Z,49.38
2023-05-01T20:22:01.554Z,50.13
2023-05-01T20:27:04.442Z,50.72
2023-05-01T20:32:06.242Z,51.09
2023-05-01T20:37:08.015Z,50.64
2023-05-01T20:42:09.823Z,50.90
2023-05-01T20:47:11.679Z,50.76
2023-05-01T20:52:13.540Z,50.87
2023-05-01T20:57:18.722Z,51.12
2023-05-01T21:02:20.544Z,51.43
2023-05-01T21:07:22.375Z,51.38
2023-05-01T21:12:24.276Z,51.91
2023-05-01T21:17:26.888Z,51.93
2023-05-01T21:22:28.675Z,52.13
2023-05-01T21:27:31.070Z,52.44
2023-05-01T21:32:40.054Z,52.91
2023-05-01T21:37:43.496Z,53.02
2023-05-01T21:42:45.835Z,53.16
2023-05-01T21:47:50.998Z,53.01
2023-05-01T21:52:52.885Z,53.45
2023-05-01T21:57:55.066Z,53.63
2023-05-01T22:02:57.094Z,53.83
2023-05-01T22:07:59.970Z,54.12
2023-05-01T22:13:02.062Z,53.89
2023-05-01T22:18:03.922Z,53.89
2023-05-01T22:23:05.865Z,54.40
2023-05-01T22:28:08.661Z,54.96
2023-05-01T22:33:10.437Z,55.69
2023-05-01T22:38:12.285Z,56.01
2023-05-01T22:43:14.000Z,56.17
2023-05-01T22:48:15.894Z,56.39
2023-05-01T22:53:17.644Z,56.33
2023-05-01T22:58:19.366Z,56.53
2023-05-01T23:03:21.242Z,56.54
2023-05-01T23:08:23.059Z,56.84
2023-05-01T23:13:24.884Z,57.06
2023-05-01T23:18:33.392Z,57.39
2023-05-01T23:23:35.739Z,57.15
2023-05-01T23:28:44.338Z,57.29
2023-05-01T23:33:46.601Z,57.43
2023-05-01T23:38:48.513Z,57.51
2023-05-01T23:43:50.315Z,57.25
2023-05-01T23:48:52.457Z,57.25
2023-05-01T23:53:54.251Z,57.25
2023-05-01T23:58:56.110Z,57.23
